METAR Data
IDs: Format: Raw Decoded Include TAF

Data at: 0854 UTC 20 Sep 2018

PAWN 200656Z AUTO 01004KT 10SM CLR 03/02 A3004 RMK AO2 SLP188 T00330017
PAWN 200556Z AUTO 35004KT 10SM CLR 05/02 A3005 RMK AO2 SLP189 T00500022 10117 20050 57000
PAWN 200456Z AUTO 32004KT 10SM BKN060 07/03 A3005 RMK AO2 SLP189 T00720028
PAWN 200256Z AUTO 31004KT 10SM FEW037 OVC085 11/02 A3005 RMK AO2 SLP190 T01110022 58008
PAWN 200156Z AUTO 01003KT 10SM BKN032 10/03 A3006 RMK AO2 SLP193 T01000028
PAWN 200123Z AUTO 11003KT 10SM SCT029 11/03 A3006 RMK AO2
PAWN 200056Z AUTO 00000KT 10SM OVC029 10/04 A3007 RMK AO2 SLP196 T01000039
PAWN 200044Z AUTO 36003KT 10SM BKN029 BKN085 10/04 A3007 RMK AO2
PAWN 192356Z AUTO 08003KT 10SM FEW080 10/03 A3007 RMK AO2 SLP199 60000 T01000033 10100 20050 56007
PAWN 192256Z AUTO 36004KT 10SM FEW023 SCT038 10/04 A3008 RMK AO2 SLP201 T01000039
PAWN 192156Z AUTO VRB03KT 10SM OVC036 09/04 A3009 RMK AO2 SLP203 T00890044
PAWN 192056Z AUTO 00000KT 10SM BKN032 08/06 A3010 RMK AO2 SLP206 60000 T00780056 56005
PAWN 192017Z AUTO 01003KT 10SM SCT030 BKN036 BKN090 07/06 A3010 RMK AO2
PAWN 191956Z AUTO 02003KT 10SM OVC028 07/05 A3010 RMK AO2 RAE14 SLP207 P0000 T00670050
PAWN 191903Z AUTO 02003KT 10SM -RA OVC028 06/05 A3011 RMK AO2 P0000
PAWN 191856Z AUTO VRB03KT 10SM -RA SCT024 OVC031 06/05 A3011 RMK AO2 RAB56 SLP210 P0000 T00560050
PAWN 191756Z AUTO 01004KT 10SM OVC033 06/05 A3011 RMK AO2 RAB23E42 SLP211 P0000 60001 T00560050 10061 20044 58001
PAWN 191656Z AUTO 03003KT 10SM SCT026 OVC035 05/04 A3011 RMK AO2 SLP212 T00500044
PAWN 191646Z AUTO 02004KT 10SM BKN026 OVC035 05/04 A3011 RMK AO2
PAWN 191605Z AUTO 02003KT 10SM OVC031 05/04 A3011 RMK AO2
PAWN 191456Z AUTO 02004KT 10SM OVC017 06/04 A3011 RMK AO2 RAE36 SLP212 P0001 60001 T00560044 56004
PAWN 191333Z AUTO 06004KT 10SM -RA BKN021 OVC030 06/05 A3011 RMK AO2 RAB13 P0000
PAWN 191322Z AUTO 05004KT 10SM -RA SCT023 OVC030 06/05 A3011 RMK AO2 RAB13 P0000
PAWN 191304Z AUTO 06004KT 10SM SCT023 OVC028 06/05 A3012 RMK AO2
PAWN 191256Z AUTO 06004KT 10SM OVC030 06/05 A3012 RMK AO2 RAE03 SLP213 P0000 T00610050
PAWN 191156Z AUTO 06003KT 10SM -RA OVC032 06/05 A3012 RMK AO2 SLP216 P0000 60004 70013 T00610050 10078 20061 58003
PAWN 191039Z AUTO 10005KT 10SM -RA OVC030 06/06 A3013 RMK AO2 P0001
PAWN 190956Z AUTO 12005KT 10SM -RA OVC028 07/06 A3013 RMK AO2 SLP218 P0000 T00670056
PAWN 190941Z AUTO 12006KT 10SM -RA BKN025 BKN033 OVC050 07/06 A3013 RMK AO2 P0000
PAWN 190924Z AUTO 12006KT 10SM -RA FEW031 SCT040 OVC050 07/06 A3013 RMK AO2 P0000
PAWN 190756Z AUTO 15006KT 10SM -RA FEW033 BKN041 OVC049 07/06 A3014 RMK AO2 SLP221 P0002 T00720061 401110067
PAWN 190656Z AUTO 14005KT 10SM -RA OVC036 07/06 A3014 RMK AO2 SLP222 P0000 T00720056
PAWN 190556Z AUTO 13005KT 10SM -RA OVC043 08/06 A3014 RMK AO2 RAB44 SLP222 P0001 60001 T00780056 10111 20078 52000
PAWN 190356Z AUTO 16003KT 10SM FEW020 SCT041 OVC060 08/06 A3014 RMK AO2 RAE14 SLP221 P0000 T00830056
PAWN 190256Z AUTO 21005KT 10SM -RA FEW028 SCT045 OVC055 09/06 A3014 RMK AO2 RAB45 SLP221 P0000 60000 T00890061 56002
PAWN 190156Z AUTO 20009KT 10SM SCT045 BKN060 09/06 A3014 RMK AO2 SLP222 T00940056
PAWN 190056Z AUTO 16007KT 10SM FEW027 10/05 A3014 RMK AO2 RAE14 SLP221 P0000 T01000050
PAWN 182256Z AUTO 16007KT 10SM SCT012 SCT022 OVC042 09/07 A3015 RMK AO2 SLP223 T00890067
PAWN 182156Z AUTO 17008KT 10SM OVC044 09/07 A3014 RMK AO2 SLP222 T00890067
PAWN 182056Z AUTO 17008KT 10SM SCT006 BKN022 OVC044 09/07 A3014 RMK AO2 SLP222 60000 T00890072 52006